createdAt,value
2023-02-19T00:02:28.029Z,4.67
2023-02-19T00:05:56.109Z,4.67
2023-02-19T00:09:23.476Z,4.65
2023-02-19T00:12:52.315Z,4.61
2023-02-19T00:16:22.450Z,4.58
2023-02-19T00:19:49.967Z,4.54
2023-02-19T00:23:17.744Z,4.52
2023-02-19T00:26:46.890Z,4.46
2023-02-19T00:30:15.251Z,4.43
2023-02-19T00:33:42.288Z,4.39
2023-02-19T00:37:09.137Z,4.34
2023-02-19T00:40:35.793Z,4.29
2023-02-19T00:44:16.736Z,4.25
2023-02-19T00:47:44.460Z,4.23
2023-02-19T00:51:12.072Z,4.23
2023-02-19T00:54:38.970Z,4.29
2023-02-19T00:58:08.404Z,4.32
2023-02-19T01:01:35.197Z,4.33
2023-02-19T01:05:04.517Z,4.30
2023-02-19T01:08:32.896Z,4.32
2023-02-19T01:12:00.802Z,4.32
2023-02-19T01:15:27.948Z,4.32
2023-02-19T01:18:54.860Z,4.32
2023-02-19T01:22:22.169Z,4.30
2023-02-19T01:25:49.154Z,4.30
2023-02-19T01:29:15.843Z,4.27
2023-02-19T01:32:45.085Z,4.26
2023-02-19T01:36:13.786Z,4.22
2023-02-19T01:39:41.120Z,4.19
2023-02-19T01:43:16.521Z,4.14
2023-02-19T01:46:44.689Z,4.11
2023-02-19T01:50:15.065Z,4.12
2023-02-19T01:53:48.950Z,4.08
2023-02-19T01:57:18.706Z,4.06
2023-02-19T02:00:46.717Z,4.07
2023-02-19T02:04:16.509Z,4.08
2023-02-19T02:08:02.024Z,4.09
2023-02-19T02:11:30.985Z,4.11
2023-02-19T02:14:59.636Z,4.16
2023-02-19T02:18:36.885Z,4.21
2023-02-19T02:22:19.854Z,4.26
2023-02-19T02:26:19.746Z,4.26
2023-02-19T02:30:08.907Z,4.24
2023-02-19T02:33:43.979Z,4.20
2023-02-19T02:37:14.576Z,4.18
2023-02-19T02:40:44.659Z,4.14
2023-02-19T02:44:12.610Z,4.11
2023-02-19T02:47:43.378Z,4.06
2023-02-19T02:51:22.181Z,4.02
2023-02-19T02:55:04.915Z,3.96
2023-02-19T02:58:35.824Z,3.94
2023-02-19T03:02:14.805Z,3.91
2023-02-19T03:05:54.612Z,3.88
2023-02-19T03:09:30.478Z,3.87
2023-02-19T03:13:33.491Z,3.85
2023-02-19T03:17:24.032Z,3.88
2023-02-19T03:20:56.515Z,3.90
2023-02-19T03:24:44.417Z,3.92
2023-02-19T03:28:16.480Z,3.96
2023-02-19T03:31:47.759Z,3.95
2023-02-19T03:35:18.991Z,3.92
2023-02-19T03:38:50.660Z,3.86
2023-02-19T03:42:31.897Z,3.81
2023-02-19T03:46:08.523Z,3.76
2023-02-19T03:49:44.029Z,3.70
2023-02-19T03:53:19.821Z,3.61
2023-02-19T03:56:54.657Z,3.52
2023-02-19T04:00:29.925Z,3.46
2023-02-19T04:04:03.905Z,3.40
2023-02-19T04:07:34.801Z,3.35
2023-02-19T04:11:02.002Z,3.32
2023-02-19T04:14:39.714Z,3.31
2023-02-19T04:18:11.628Z,3.35
2023-02-19T04:21:41.853Z,3.41
2023-02-19T04:25:10.199Z,3.45
2023-02-19T04:28:37.793Z,3.50
2023-02-19T04:32:05.231Z,3.55
2023-02-19T04:35:32.933Z,3.57
2023-02-19T04:39:00.124Z,3.58
2023-02-19T04:42:27.516Z,3.58
2023-02-19T04:45:55.508Z,3.57
2023-02-19T04:49:22.377Z,3.55
2023-02-19T04:52:49.541Z,3.53
2023-02-19T04:56:17.886Z,3.51
2023-02-19T04:59:45.090Z,3.49
2023-02-19T05:03:11.953Z,3.47
2023-02-19T05:06:39.588Z,3.45
2023-02-19T05:10:06.289Z,3.39
2023-02-19T05:13:35.591Z,3.34
2023-02-19T05:17:02.510Z,3.31
2023-02-19T05:20:29.270Z,3.26
2023-02-19T05:23:56.048Z,3.22
2023-02-19T05:27:23.486Z,3.21
2023-02-19T05:30:52.512Z,3.19
2023-02-19T05:34:19.260Z,3.18
2023-02-19T05:37:45.723Z,3.18
2023-02-19T05:41:15.994Z,3.17
2023-02-19T05:44:42.594Z,3.17
2023-02-19T05:48:11.879Z,3.18
2023-02-19T05:51:38.677Z,3.24
2023-02-19T05:55:06.252Z,3.29
2023-02-19T05:58:33.574Z,3.30
2023-02-19T06:02:00.477Z,3.30
2023-02-19T06:05:27.713Z,3.28
2023-02-19T06:08:55.821Z,3.26
2023-02-19T06:12:22.638Z,3.23
2023-02-19T06:15:49.716Z,3.18
2023-02-19T06:19:16.672Z,3.14
2023-02-19T06:22:43.262Z,3.07
2023-02-19T06:26:15.001Z,3.05
2023-02-19T06:29:42.051Z,3.05
2023-02-19T06:33:09.077Z,3.06
2023-02-19T06:36:36.107Z,3.08
2023-02-19T06:40:04.684Z,3.12
2023-02-19T06:43:32.939Z,3.18
2023-02-19T06:46:59.721Z,3.24
2023-02-19T06:50:26.958Z,3.28
2023-02-19T06:53:53.785Z,3.34
2023-02-19T06:57:21.091Z,3.41
2023-02-19T07:00:48.770Z,3.44
2023-02-19T07:04:17.597Z,3.47
2023-02-19T07:07:47.003Z,3.46
2023-02-19T07:11:13.816Z,3.44
2023-02-19T07:14:41.213Z,3.43
2023-02-19T07:18:10.675Z,3.45
2023-02-19T07:21:39.244Z,3.46
2023-02-19T07:25:06.436Z,3.48
2023-02-19T07:28:34.259Z,3.50
2023-02-19T07:32:01.225Z,3.49
2023-02-19T07:35:28.575Z,3.51
2023-02-19T07:39:00.518Z,3.54
2023-02-19T07:42:28.012Z,3.60
2023-02-19T07:45:55.955Z,3.58
2023-02-19T07:49:24.810Z,3.66
2023-02-19T07:52:51.755Z,3.72
2023-02-19T07:56:19.917Z,3.79
2023-02-19T07:59:47.244Z,3.91
2023-02-19T08:03:16.689Z,4.01
2023-02-19T08:06:45.804Z,4.07
2023-02-19T08:10:36.042Z,4.12
2023-02-19T08:14:04.507Z,4.15
2023-02-19T08:17:33.642Z,4.20
2023-02-19T08:21:08.975Z,4.23
2023-02-19T08:24:38.464Z,4.22
2023-02-19T08:28:06.656Z,4.25
2023-02-19T08:31:35.420Z,4.29
2023-02-19T08:35:04.694Z,4.31
2023-02-19T08:38:34.974Z,4.32
2023-02-19T08:42:01.846Z,4.38
2023-02-19T08:45:29.282Z,4.46
2023-02-19T08:48:56.457Z,4.51
2023-02-19T08:52:23.606Z,4.60
2023-02-19T08:55:51.654Z,4.70
2023-02-19T08:59:20.699Z,4.83
2023-02-19T09:02:50.920Z,4.90
2023-02-19T09:06:23.786Z,5.01
2023-02-19T09:09:51.252Z,5.06
2023-02-19T09:13:17.930Z,5.12
2023-02-19T09:16:44.778Z,5.16
2023-02-19T09:20:15.479Z,5.22
2023-02-19T09:23:42.546Z,5.30
2023-02-19T09:27:10.354Z,5.33
2023-02-19T09:30:38.586Z,5.35
2023-02-19T09:34:08.787Z,5.39
2023-02-19T09:37:36.350Z,5.41
2023-02-19T09:41:16.256Z,5.43
2023-02-19T09:44:45.945Z,5.50
2023-02-19T09:48:14.980Z,5.50
2023-02-19T09:51:45.101Z,5.51
2023-02-19T09:55:20.252Z,5.57
2023-02-19T09:58:50.614Z,5.63
2023-02-19T10:02:21.203Z,5.68
2023-02-19T10:05:49.004Z,5.71
2023-02-19T10:09:26.964Z,5.73
2023-02-19T10:12:57.549Z,5.83
2023-02-19T10:16:27.554Z,5.88
2023-02-19T10:19:55.752Z,5.97
2023-02-19T10:23:22.774Z,6.06
2023-02-19T10:26:51.862Z,6.16
2023-02-19T10:30:26.250Z,6.22
2023-02-19T10:33:55.050Z,6.27
2023-02-19T10:37:21.931Z,6.36
2023-02-19T10:40:50.012Z,6.36
2023-02-19T10:44:22.092Z,6.35
2023-02-19T10:47:56.028Z,6.27
2023-02-19T10:51:37.367Z,6.18
2023-02-19T10:55:22.669Z,6.19
2023-02-19T10:58:49.461Z,6.04
2023-02-19T11:02:22.160Z,5.99
2023-02-19T11:06:01.796Z,6.11
2023-02-19T11:09:34.148Z,6.13
2023-02-19T11:13:04.713Z,6.12
2023-02-19T11:16:42.637Z,6.10
2023-02-19T11:20:16.766Z,6.13
2023-02-19T11:23:49.525Z,6.14
2023-02-19T11:27:23.075Z,6.07
2023-02-19T11:30:52.677Z,6.00
2023-02-19T11:34:35.949Z,5.93
2023-02-19T11:38:03.715Z,6.01
2023-02-19T11:41:57.534Z,6.21
2023-02-19T11:45:38.586Z,6.47
2023-02-19T11:49:19.258Z,6.49
2023-02-19T11:52:58.103Z,6.39
2023-02-19T11:56:34.793Z,6.40
2023-02-19T12:00:17.487Z,6.40
2023-02-19T12:04:05.017Z,6.48
2023-02-19T12:07:56.599Z,6.57
2023-02-19T12:11:40.137Z,6.65
2023-02-19T12:15:26.773Z,7.00
2023-02-19T12:19:16.660Z,7.28
2023-02-19T12:22:53.312Z,7.48
2023-02-19T12:26:28.670Z,7.45
2023-02-19T12:30:18.529Z,7.44
2023-02-19T12:34:02.532Z,7.51
2023-02-19T12:37:42.856Z,7.62
2023-02-19T12:41:23.335Z,7.79
2023-02-19T12:44:54.948Z,8.06
2023-02-19T12:48:34.344Z,8.28
2023-02-19T12:52:08.545Z,8.22
2023-02-19T12:55:43.335Z,8.10
2023-02-19T12:59:16.791Z,7.96
2023-02-19T13:02:48.235Z,7.88
2023-02-19T13:06:26.134Z,8.00
2023-02-19T13:10:01.059Z,8.09
2023-02-19T13:13:33.829Z,8.09
2023-02-19T13:17:09.902Z,8.04
2023-02-19T13:20:41.622Z,7.90
2023-02-19T13:24:12.991Z,7.82
2023-02-19T13:27:59.516Z,7.77
2023-02-19T13:31:47.187Z,7.82
2023-02-19T13:35:30.410Z,8.05
2023-02-19T13:39:01.288Z,8.21
2023-02-19T13:42:33.931Z,8.22
2023-02-19T13:46:04.396Z,8.32
2023-02-19T13:49:43.680Z,8.42
2023-02-19T13:53:53.103Z,8.60
2023-02-19T13:57:32.412Z,8.77
2023-02-19T14:01:01.592Z,8.85
2023-02-19T14:04:49.224Z,8.66
2023-02-19T14:08:53.074Z,8.42
2023-02-19T14:12:32.081Z,8.44
2023-02-19T14:15:59.739Z,8.59
2023-02-19T14:19:59.785Z,8.79
2023-02-19T14:23:39.165Z,8.98
2023-02-19T14:27:06.566Z,9.10
2023-02-19T14:30:45.101Z,9.16
2023-02-19T14:34:22.608Z,9.11
2023-02-19T14:37:51.377Z,9.05
2023-02-19T14:41:20.778Z,8.93
2023-02-19T14:44:53.728Z,8.72
2023-02-19T14:48:26.048Z,8.49
2023-02-19T14:51:57.013Z,8.26
2023-02-19T14:55:28.688Z,8.12
2023-02-19T15:02:27.599Z,7.92
2023-02-19T15:05:59.921Z,7.72
2023-02-19T15:09:36.552Z,7.52
2023-02-19T15:13:06.598Z,7.36
2023-02-19T15:16:35.983Z,7.25
2023-02-19T15:20:06.768Z,7.10
2023-02-19T15:23:36.188Z,6.98
2023-02-19T15:27:03.510Z,6.86
2023-02-19T15:30:31.615Z,6.68
2023-02-19T15:33:59.022Z,6.52
2023-02-19T15:37:27.327Z,6.37
2023-02-19T15:40:56.222Z,6.22
2023-02-19T15:44:33.870Z,6.03
2023-02-19T15:48:10.520Z,5.84
2023-02-19T15:51:42.972Z,5.68
2023-02-19T15:55:35.718Z,5.54
2023-02-19T15:59:08.103Z,5.44
2023-02-19T16:02:36.168Z,5.36
2023-02-19T16:06:06.860Z,5.29
2023-02-19T16:09:38.605Z,5.21
2023-02-19T16:13:09.536Z,5.16
2023-02-19T16:16:42.438Z,5.08
2023-02-19T16:20:21.700Z,4.98
2023-02-19T16:23:54.933Z,4.82
2023-02-19T16:27:32.777Z,4.72
2023-02-19T16:31:04.883Z,4.62
2023-02-19T16:34:47.191Z,4.52
2023-02-19T16:38:17.957Z,4.41
2023-02-19T16:42:19.657Z,4.31
2023-02-19T16:45:47.498Z,4.18
2023-02-19T16:49:15.059Z,4.07
2023-02-19T16:52:54.234Z,3.96
2023-02-19T16:56:23.305Z,3.88
2023-02-19T16:59:50.532Z,3.81
2023-02-19T17:03:20.618Z,3.75
2023-02-19T17:06:48.407Z,3.72
2023-02-19T17:10:18.726Z,3.68
2023-02-19T17:13:47.391Z,3.63
2023-02-19T17:17:13.750Z,3.56
2023-02-19T17:20:42.069Z,3.50
2023-02-19T17:24:09.552Z,3.43
2023-02-19T17:27:36.570Z,3.37
2023-02-19T17:31:04.029Z,3.31
2023-02-19T17:34:31.026Z,3.27
2023-02-19T17:37:58.182Z,3.24
2023-02-19T17:41:24.989Z,3.19
2023-02-19T17:44:53.890Z,3.15
2023-02-19T17:48:21.099Z,3.11
2023-02-19T17:51:48.825Z,3.06
2023-02-19T17:55:18.687Z,3.03
2023-02-19T17:58:46.541Z,2.99
2023-02-19T18:02:13.327Z,2.94
2023-02-19T18:05:41.473Z,2.91
2023-02-19T18:09:08.764Z,2.86
2023-02-19T18:12:35.729Z,2.82
2023-02-19T18:16:03.046Z,2.80
2023-02-19T18:19:32.919Z,2.76
2023-02-19T18:23:00.231Z,2.72
2023-02-19T18:26:28.453Z,2.68
2023-02-19T18:29:59.490Z,2.64
2023-02-19T18:33:29.810Z,2.61
2023-02-19T18:36:57.655Z,2.56
2023-02-19T18:40:26.820Z,2.52
2023-02-19T18:43:54.205Z,2.48
2023-02-19T18:47:25.432Z,2.46
2023-02-19T18:50:55.928Z,2.43
2023-02-19T18:54:30.054Z,2.39
2023-02-19T18:57:59.885Z,2.36
2023-02-19T19:01:27.270Z,2.35
2023-02-19T19:04:58.829Z,2.35
2023-02-19T19:08:26.025Z,2.34
2023-02-19T19:11:55.812Z,2.31
2023-02-19T19:15:24.955Z,2.28
2023-02-19T19:18:52.737Z,2.23
2023-02-19T19:22:23.077Z,2.20
2023-02-19T19:25:50.676Z,2.16
2023-02-19T19:29:19.363Z,2.11
2023-02-19T19:32:53.731Z,2.08
2023-02-19T19:36:24.420Z,2.05
2023-02-19T19:39:52.264Z,2.04
2023-02-19T19:43:21.365Z,2.02
2023-02-19T19:46:48.995Z,2.01
2023-02-19T19:50:18.384Z,1.99
2023-02-19T19:53:53.283Z,1.98
2023-02-19T19:57:22.612Z,1.98
2023-02-19T20:00:49.630Z,2.00
2023-02-19T20:04:17.730Z,2.00
2023-02-19T20:07:44.893Z,2.01
2023-02-19T20:11:12.092Z,2.05
2023-02-19T20:14:44.738Z,2.07
2023-02-19T20:18:13.410Z,2.09
2023-02-19T20:21:40.332Z,2.08
2023-02-19T20:25:09.466Z,2.06
2023-02-19T20:28:47.069Z,2.02
2023-02-19T20:32:19.204Z,1.99
2023-02-19T20:35:49.693Z,1.96
2023-02-19T20:39:18.801Z,1.91
2023-02-19T20:42:52.906Z,1.91
2023-02-19T20:46:20.294Z,1.89
2023-02-19T20:49:53.744Z,1.88
2023-02-19T20:53:21.030Z,1.87
2023-02-19T20:56:53.566Z,1.86
2023-02-19T21:00:23.545Z,1.86
2023-02-19T21:03:52.394Z,1.86
2023-02-19T21:07:29.984Z,1.85
2023-02-19T21:11:00.894Z,1.84
2023-02-19T21:14:28.155Z,1.83
2023-02-19T21:17:55.816Z,1.84
2023-02-19T21:21:26.659Z,1.85
2023-02-19T21:24:54.649Z,1.85
2023-02-19T21:28:24.194Z,1.87
2023-02-19T21:31:58.126Z,1.86
2023-02-19T21:35:26.289Z,1.86
2023-02-19T21:38:53.803Z,1.87
2023-02-19T21:42:22.250Z,1.86
2023-02-19T21:45:49.265Z,1.86
2023-02-19T21:49:17.360Z,1.85
2023-02-19T21:52:46.819Z,1.84
2023-02-19T21:56:16.267Z,1.82
2023-02-19T21:59:45.184Z,1.83
2023-02-19T22:03:18.081Z,1.85
2023-02-19T22:06:47.893Z,1.87
2023-02-19T22:10:19.244Z,1.91
2023-02-19T22:13:46.892Z,1.98
2023-02-19T22:17:15.708Z,2.03
2023-02-19T22:20:43.141Z,2.04
2023-02-19T22:24:19.806Z,2.07
2023-02-19T22:27:49.587Z,2.09
2023-02-19T22:31:17.874Z,2.09
2023-02-19T22:34:44.782Z,2.09
2023-02-19T22:38:12.322Z,2.08
2023-02-19T22:41:45.482Z,2.07
2023-02-19T22:45:14.936Z,2.04
2023-02-19T22:48:42.867Z,2.01
2023-02-19T22:52:17.177Z,1.98
2023-02-19T22:55:45.458Z,1.95
2023-02-19T22:59:13.959Z,1.91
2023-02-19T23:02:42.855Z,1.89
2023-02-19T23:06:12.407Z,1.86
2023-02-19T23:09:40.664Z,1.85
2023-02-19T23:13:12.376Z,1.85
2023-02-19T23:16:39.626Z,1.82
2023-02-19T23:20:08.368Z,1.81
2023-02-19T23:23:36.944Z,1.80
2023-02-19T23:27:03.950Z,1.81
2023-02-19T23:30:30.902Z,1.81
2023-02-19T23:33:57.854Z,1.80
2023-02-19T23:37:25.071Z,1.80
2023-02-19T23:40:52.645Z,1.80
2023-02-19T23:44:20.891Z,1.80
2023-02-19T23:47:48.432Z,1.80
2023-02-19T23:51:15.745Z,1.79
2023-02-19T23:54:43.574Z,1.78
2023-02-19T23:58:10.496Z,1.76
